sensor_id;sensor_type;location;lat;lon;timestamp;P1;durP1;ratioP1;P2;durP2;ratioP2
27489;SDS011;14925;51.026;13.752;2023-09-12T00:00:45;16.38;;;14.13;;
27489;SDS011;14925;51.026;13.752;2023-09-12T00:03:10;16.45;;;13.30;;
27489;SDS011;14925;51.026;13.752;2023-09-12T00:05:36;15.18;;;13.57;;
27489;SDS011;14925;51.026;13.752;2023-09-12T00:08:01;15.70;;;14.00;;
27489;SDS011;14925;51.026;13.752;2023-09-12T00:10:28;17.42;;;14.10;;
27489;SDS011;14925;51.026;13.752;2023-09-12T00:12:54;18.48;;;14.40;;
27489;SDS011;14925;51.026;13.752;2023-09-12T00:15:20;17.17;;;14.10;;
27489;SDS011;14925;51.026;13.752;2023-09-12T00:17:45;18.83;;;14.07;;
27489;SDS011;14925;51.026;13.752;2023-09-12T00:20:11;16.27;;;13.98;;
27489;SDS011;14925;51.026;13.752;2023-09-12T00:22:36;17.58;;;15.05;;
27489;SDS011;14925;51.026;13.752;2023-09-12T00:25:01;16.40;;;14.63;;
27489;SDS011;14925;51.026;13.752;2023-09-12T00:27:28;17.77;;;13.98;;
27489;SDS011;14925;51.026;13.752;2023-09-12T00:29:53;17.30;;;15.10;;
27489;SDS011;14925;51.026;13.752;2023-09-12T00:32:18;18.17;;;15.52;;
27489;SDS011;14925;51.026;13.752;2023-09-12T00:34:44;17.30;;;14.88;;
27489;SDS011;14925;51.026;13.752;2023-09-12T00:37:09;16.80;;;14.93;;
27489;SDS011;14925;51.026;13.752;2023-09-12T00:39:35;22.83;;;15.57;;
27489;SDS011;14925;51.026;13.752;2023-09-12T00:42:00;18.90;;;14.75;;
27489;SDS011;14925;51.026;13.752;2023-09-12T00:44:25;17.75;;;15.30;;
27489;SDS011;14925;51.026;13.752;2023-09-12T00:46:51;19.35;;;15.25;;
27489;SDS011;14925;51.026;13.752;2023-09-12T00:49:18;18.10;;;15.13;;
27489;SDS011;14925;51.026;13.752;2023-09-12T00:51:43;20.23;;;16.35;;
27489;SDS011;14925;51.026;13.752;2023-09-12T00:54:10;18.88;;;15.45;;
27489;SDS011;14925;51.026;13.752;2023-09-12T00:56:35;17.23;;;15.43;;
27489;SDS011;14925;51.026;13.752;2023-09-12T00:59:01;16.65;;;14.95;;
27489;SDS011;14925;51.026;13.752;2023-09-12T01:01:27;17.65;;;15.20;;
27489;SDS011;14925;51.026;13.752;2023-09-12T01:03:53;18.65;;;16.35;;
27489;SDS011;14925;51.026;13.752;2023-09-12T01:06:20;19.48;;;15.93;;
27489;SDS011;14925;51.026;13.752;2023-09-12T01:08:47;18.27;;;15.75;;
27489;SDS011;14925;51.026;13.752;2023-09-12T01:11:13;20.67;;;16.08;;
27489;SDS011;14925;51.026;13.752;2023-09-12T01:13:39;18.67;;;14.82;;
27489;SDS011;14925;51.026;13.752;2023-09-12T01:16:04;17.92;;;14.45;;
27489;SDS011;14925;51.026;13.752;2023-09-12T01:18:29;17.60;;;15.00;;
27489;SDS011;14925;51.026;13.752;2023-09-12T01:29:21;18.10;;;14.60;;
27489;SDS011;14925;51.026;13.752;2023-09-12T01:31:47;18.25;;;15.00;;
27489;SDS011;14925;51.026;13.752;2023-09-12T01:34:14;16.17;;;14.55;;
27489;SDS011;14925;51.026;13.752;2023-09-12T01:36:40;16.63;;;13.88;;
27489;SDS011;14925;51.026;13.752;2023-09-12T01:39:05;18.23;;;14.70;;
27489;SDS011;14925;51.026;13.752;2023-09-12T01:41:31;19.85;;;15.57;;
27489;SDS011;14925;51.026;13.752;2023-09-12T01:43:59;20.40;;;16.00;;
27489;SDS011;14925;51.026;13.752;2023-09-12T01:46:25;20.35;;;15.75;;
27489;SDS011;14925;51.026;13.752;2023-09-12T01:48:51;20.98;;;16.23;;
27489;SDS011;14925;51.026;13.752;2023-09-12T01:51:18;17.95;;;15.50;;
27489;SDS011;14925;51.026;13.752;2023-09-12T01:53:44;17.70;;;15.30;;
27489;SDS011;14925;51.026;13.752;2023-09-12T01:56:10;19.25;;;16.13;;
27489;SDS011;14925;51.026;13.752;2023-09-12T01:58:37;18.83;;;15.63;;
27489;SDS011;14925;51.026;13.752;2023-09-12T02:01:02;17.33;;;14.98;;
27489;SDS011;14925;51.026;13.752;2023-09-12T02:03:28;16.80;;;14.88;;
27489;SDS011;14925;51.026;13.752;2023-09-12T02:05:53;17.83;;;14.05;;
27489;SDS011;14925;51.026;13.752;2023-09-12T02:08:19;18.73;;;15.90;;
27489;SDS011;14925;51.026;13.752;2023-09-12T02:10:44;21.42;;;16.52;;
27489;SDS011;14925;51.026;13.752;2023-09-12T02:13:09;18.60;;;15.80;;
27489;SDS011;14925;51.026;13.752;2023-09-12T02:15:35;18.77;;;15.57;;
27489;SDS011;14925;51.026;13.752;2023-09-12T02:18:00;19.95;;;16.92;;
27489;SDS011;14925;51.026;13.752;2023-09-12T02:20:25;18.85;;;16.55;;
27489;SDS011;14925;51.026;13.752;2023-09-12T02:22:51;19.88;;;15.40;;
27489;SDS011;14925;51.026;13.752;2023-09-12T02:25:16;18.50;;;15.93;;
27489;SDS011;14925;51.026;13.752;2023-09-12T02:27:42;18.40;;;15.45;;
27489;SDS011;14925;51.026;13.752;2023-09-12T02:30:07;18.50;;;14.52;;
27489;SDS011;14925;51.026;13.752;2023-09-12T02:32:33;18.33;;;15.60;;
27489;SDS011;14925;51.026;13.752;2023-09-12T02:34:58;18.90;;;15.95;;
27489;SDS011;14925;51.026;13.752;2023-09-12T02:37:24;16.90;;;14.70;;
27489;SDS011;14925;51.026;13.752;2023-09-12T02:39:49;18.17;;;15.45;;
27489;SDS011;14925;51.026;13.752;2023-09-12T02:42:15;17.55;;;14.75;;
27489;SDS011;14925;51.026;13.752;2023-09-12T02:44:40;18.35;;;14.85;;
27489;SDS011;14925;51.026;13.752;2023-09-12T02:47:06;17.15;;;15.07;;
27489;SDS011;14925;51.026;13.752;2023-09-12T02:49:31;18.52;;;15.32;;
27489;SDS011;14925;51.026;13.752;2023-09-12T02:51:56;20.58;;;15.80;;
27489;SDS011;14925;51.026;13.752;2023-09-12T02:54:22;17.17;;;14.48;;
27489;SDS011;14925;51.026;13.752;2023-09-12T02:56:47;19.02;;;14.98;;
27489;SDS011;14925;51.026;13.752;2023-09-12T02:59:12;20.92;;;15.15;;
27489;SDS011;14925;51.026;13.752;2023-09-12T03:01:38;17.73;;;14.77;;
27489;SDS011;14925;51.026;13.752;2023-09-12T03:04:03;18.98;;;15.07;;
27489;SDS011;14925;51.026;13.752;2023-09-12T03:06:29;17.13;;;14.25;;
27489;SDS011;14925;51.026;13.752;2023-09-12T03:08:55;22.35;;;16.17;;
27489;SDS011;14925;51.026;13.752;2023-09-12T03:11:20;21.17;;;15.68;;
27489;SDS011;14925;51.026;13.752;2023-09-12T03:13:45;17.75;;;15.15;;
27489;SDS011;14925;51.026;13.752;2023-09-12T03:16:11;19.83;;;14.10;;
27489;SDS011;14925;51.026;13.752;2023-09-12T03:18:38;18.27;;;14.80;;
27489;SDS011;14925;51.026;13.752;2023-09-12T03:21:03;20.45;;;15.27;;
27489;SDS011;14925;51.026;13.752;2023-09-12T03:23:29;16.23;;;14.20;;
27489;SDS011;14925;51.026;13.752;2023-09-12T03:25:54;16.25;;;14.25;;
27489;SDS011;14925;51.026;13.752;2023-09-12T03:28:21;18.83;;;14.45;;
27489;SDS011;14925;51.026;13.752;2023-09-12T03:30:46;20.60;;;15.70;;
27489;SDS011;14925;51.026;13.752;2023-09-12T03:33:12;16.10;;;14.35;;
27489;SDS011;14925;51.026;13.752;2023-09-12T03:35:37;19.05;;;14.43;;
27489;SDS011;14925;51.026;13.752;2023-09-12T03:38:03;20.50;;;14.20;;
27489;SDS011;14925;51.026;13.752;2023-09-12T03:40:28;16.20;;;14.20;;
27489;SDS011;14925;51.026;13.752;2023-09-12T03:42:55;16.10;;;13.88;;
27489;SDS011;14925;51.026;13.752;2023-09-12T03:45:21;18.60;;;15.45;;
27489;SDS011;14925;51.026;13.752;2023-09-12T03:47:46;21.50;;;13.80;;
27489;SDS011;14925;51.026;13.752;2023-09-12T03:50:12;20.20;;;15.25;;
27489;SDS011;14925;51.026;13.752;2023-09-12T03:52:38;16.30;;;13.73;;
27489;SDS011;14925;51.026;13.752;2023-09-12T03:55:03;16.05;;;14.15;;
27489;SDS011;14925;51.026;13.752;2023-09-12T03:57:29;17.33;;;14.90;;
27489;SDS011;14925;51.026;13.752;2023-09-12T03:59:54;18.27;;;14.73;;
27489;SDS011;14925;51.026;13.752;2023-09-12T04:02:19;19.65;;;14.43;;
27489;SDS011;14925;51.026;13.752;2023-09-12T04:04:45;17.35;;;14.82;;
27489;SDS011;14925;51.026;13.752;2023-09-12T04:07:10;17.35;;;14.75;;
27489;SDS011;14925;51.026;13.752;2023-09-12T04:09:38;19.38;;;14.90;;
27489;SDS011;14925;51.026;13.752;2023-09-12T04:12:04;17.02;;;15.05;;
27489;SDS011;14925;51.026;13.752;2023-09-12T04:14:31;19.77;;;15.02;;
27489;SDS011;14925;51.026;13.752;2023-09-12T04:17:00;20.33;;;14.85;;
27489;SDS011;14925;51.026;13.752;2023-09-12T04:19:26;19.63;;;15.25;;
27489;SDS011;14925;51.026;13.752;2023-09-12T04:21:51;18.00;;;15.15;;
27489;SDS011;14925;51.026;13.752;2023-09-12T04:24:16;16.98;;;15.02;;
27489;SDS011;14925;51.026;13.752;2023-09-12T04:26:42;16.83;;;13.98;;
27489;SDS011;14925;51.026;13.752;2023-09-12T04:29:09;15.27;;;13.50;;
27489;SDS011;14925;51.026;13.752;2023-09-12T04:31:34;18.67;;;14.43;;
27489;SDS011;14925;51.026;13.752;2023-09-12T04:34:00;19.40;;;14.55;;
27489;SDS011;14925;51.026;13.752;2023-09-12T04:36:25;18.58;;;15.20;;
27489;SDS011;14925;51.026;13.752;2023-09-12T04:38:50;19.25;;;15.20;;
27489;SDS011;14925;51.026;13.752;2023-09-12T04:41:16;17.23;;;14.75;;
27489;SDS011;14925;51.026;13.752;2023-09-12T04:43:42;17.05;;;14.63;;
27489;SDS011;14925;51.026;13.752;2023-09-12T04:46:10;18.27;;;15.10;;
27489;SDS011;14925;51.026;13.752;2023-09-12T04:48:36;17.77;;;15.80;;
27489;SDS011;14925;51.026;13.752;2023-09-12T04:51:02;19.23;;;14.98;;
27489;SDS011;14925;51.026;13.752;2023-09-12T04:53:27;18.10;;;15.45;;
27489;SDS011;14925;51.026;13.752;2023-09-12T04:55:59;19.75;;;15.65;;
27489;SDS011;14925;51.026;13.752;2023-09-12T04:58:24;20.60;;;15.23;;
27489;SDS011;14925;51.026;13.752;2023-09-12T05:00:49;19.15;;;14.82;;
27489;SDS011;14925;51.026;13.752;2023-09-12T05:03:15;17.77;;;14.25;;
27489;SDS011;14925;51.026;13.752;2023-09-12T05:05:47;19.77;;;13.98;;
27489;SDS011;14925;51.026;13.752;2023-09-12T05:08:12;17.77;;;13.50;;
27489;SDS011;14925;51.026;13.752;2023-09-12T05:10:38;16.40;;;13.70;;
27489;SDS011;14925;51.026;13.752;2023-09-12T05:13:04;17.88;;;13.93;;
27489;SDS011;14925;51.026;13.752;2023-09-12T05:15:29;16.92;;;13.05;;
27489;SDS011;14925;51.026;13.752;2023-09-12T05:17:55;17.17;;;13.25;;
27489;SDS011;14925;51.026;13.752;2023-09-12T05:20:20;20.05;;;14.50;;
27489;SDS011;14925;51.026;13.752;2023-09-12T05:22:45;17.55;;;13.40;;
27489;SDS011;14925;51.026;13.752;2023-09-12T05:25:11;17.63;;;13.38;;
27489;SDS011;14925;51.026;13.752;2023-09-12T05:27:36;22.38;;;13.57;;
27489;SDS011;14925;51.026;13.752;2023-09-12T05:30:02;15.02;;;12.30;;
27489;SDS011;14925;51.026;13.752;2023-09-12T05:32:27;17.02;;;13.50;;
27489;SDS011;14925;51.026;13.752;2023-09-12T05:34:52;15.93;;;13.63;;
27489;SDS011;14925;51.026;13.752;2023-09-12T05:37:18;18.23;;;12.93;;
27489;SDS011;14925;51.026;13.752;2023-09-12T05:39:45;17.42;;;13.25;;
27489;SDS011;14925;51.026;13.752;2023-09-12T05:42:11;17.13;;;12.95;;
27489;SDS011;14925;51.026;13.752;2023-09-12T05:44:37;15.88;;;12.60;;
27489;SDS011;14925;51.026;13.752;2023-09-12T05:47:02;15.52;;;12.93;;
27489;SDS011;14925;51.026;13.752;2023-09-12T05:49:28;19.30;;;13.43;;
27489;SDS011;14925;51.026;13.752;2023-09-12T05:51:53;19.65;;;12.82;;
27489;SDS011;14925;51.026;13.752;2023-09-12T05:54:19;19.40;;;12.27;;
27489;SDS011;14925;51.026;13.752;2023-09-12T05:56:44;16.15;;;12.20;;
27489;SDS011;14925;51.026;13.752;2023-09-12T05:59:10;20.58;;;13.25;;
27489;SDS011;14925;51.026;13.752;2023-09-12T06:01:35;19.13;;;12.15;;
27489;SDS011;14925;51.026;13.752;2023-09-12T06:04:01;18.70;;;12.60;;
27489;SDS011;14925;51.026;13.752;2023-09-12T06:06:27;20.88;;;13.18;;
27489;SDS011;14925;51.026;13.752;2023-09-12T06:08:52;14.20;;;12.63;;
27489;SDS011;14925;51.026;13.752;2023-09-12T06:11:18;22.25;;;12.48;;
27489;SDS011;14925;51.026;13.752;2023-09-12T06:13:44;28.73;;;12.13;;
27489;SDS011;14925;51.026;13.752;2023-09-12T06:16:09;24.42;;;12.25;;
27489;SDS011;14925;51.026;13.752;2023-09-12T06:18:34;18.45;;;11.88;;
27489;SDS011;14925;51.026;13.752;2023-09-12T06:21:00;17.00;;;11.10;;
27489;SDS011;14925;51.026;13.752;2023-09-12T06:23:29;19.05;;;11.50;;
27489;SDS011;14925;51.026;13.752;2023-09-12T06:25:55;26.50;;;12.80;;
27489;SDS011;14925;51.026;13.752;2023-09-12T06:28:27;21.75;;;11.63;;
27489;SDS011;14925;51.026;13.752;2023-09-12T06:30:54;21.90;;;12.13;;
27489;SDS011;14925;51.026;13.752;2023-09-12T06:33:19;27.10;;;12.43;;
27489;SDS011;14925;51.026;13.752;2023-09-12T06:35:48;21.00;;;12.35;;
27489;SDS011;14925;51.026;13.752;2023-09-12T06:38:14;20.17;;;11.77;;
27489;SDS011;14925;51.026;13.752;2023-09-12T06:40:40;23.52;;;12.57;;
27489;SDS011;14925;51.026;13.752;2023-09-12T06:43:07;22.30;;;12.38;;
27489;SDS011;14925;51.026;13.752;2023-09-12T06:45:33;24.42;;;12.25;;
27489;SDS011;14925;51.026;13.752;2023-09-12T06:48:00;20.17;;;13.10;;
27489;SDS011;14925;51.026;13.752;2023-09-12T06:50:25;18.65;;;12.82;;
27489;SDS011;14925;51.026;13.752;2023-09-12T06:52:51;21.38;;;12.30;;
27489;SDS011;14925;51.026;13.752;2023-09-12T06:55:16;22.17;;;11.75;;
27489;SDS011;14925;51.026;13.752;2023-09-12T06:57:44;21.05;;;12.35;;
27489;SDS011;14925;51.026;13.752;2023-09-12T07:00:10;21.45;;;12.40;;
27489;SDS011;14925;51.026;13.752;2023-09-12T07:02:36;24.77;;;11.98;;
27489;SDS011;14925;51.026;13.752;2023-09-12T07:05:01;23.98;;;11.95;;
27489;SDS011;14925;51.026;13.752;2023-09-12T07:07:28;19.90;;;11.45;;
27489;SDS011;14925;51.026;13.752;2023-09-12T07:09:54;20.42;;;10.95;;
27489;SDS011;14925;51.026;13.752;2023-09-12T07:12:19;16.85;;;11.60;;
27489;SDS011;14925;51.026;13.752;2023-09-12T07:14:45;17.98;;;11.43;;
27489;SDS011;14925;51.026;13.752;2023-09-12T07:17:10;18.55;;;10.63;;
27489;SDS011;14925;51.026;13.752;2023-09-12T07:19:35;15.20;;;11.27;;
27489;SDS011;14925;51.026;13.752;2023-09-12T07:22:01;19.23;;;11.20;;
27489;SDS011;14925;51.026;13.752;2023-09-12T07:24:26;17.45;;;11.35;;
27489;SDS011;14925;51.026;13.752;2023-09-12T07:26:52;20.45;;;11.65;;
27489;SDS011;14925;51.026;13.752;2023-09-12T07:29:17;17.17;;;10.88;;
27489;SDS011;14925;51.026;13.752;2023-09-12T07:31:43;17.45;;;10.55;;
27489;SDS011;14925;51.026;13.752;2023-09-12T07:34:09;18.55;;;10.82;;
27489;SDS011;14925;51.026;13.752;2023-09-12T07:36:35;16.60;;;9.50;;
27489;SDS011;14925;51.026;13.752;2023-09-12T07:39:01;13.95;;;9.35;;
27489;SDS011;14925;51.026;13.752;2023-09-12T07:41:27;16.17;;;9.45;;
27489;SDS011;14925;51.026;13.752;2023-09-12T07:43:53;17.30;;;9.25;;
27489;SDS011;14925;51.026;13.752;2023-09-12T07:46:18;17.10;;;9.38;;
27489;SDS011;14925;51.026;13.752;2023-09-12T07:48:43;15.65;;;9.85;;
27489;SDS011;14925;51.026;13.752;2023-09-12T07:51:15;16.20;;;9.55;;
27489;SDS011;14925;51.026;13.752;2023-09-12T07:53:42;19.23;;;8.48;;
27489;SDS011;14925;51.026;13.752;2023-09-12T07:56:08;17.90;;;8.52;;
27489;SDS011;14925;51.026;13.752;2023-09-12T07:58:35;19.40;;;8.88;;
27489;SDS011;14925;51.026;13.752;2023-09-12T08:01:04;11.77;;;8.95;;
27489;SDS011;14925;51.026;13.752;2023-09-12T08:03:37;20.60;;;9.68;;
27489;SDS011;14925;51.026;13.752;2023-09-12T08:06:03;16.95;;;8.75;;
27489;SDS011;14925;51.026;13.752;2023-09-12T08:08:29;15.88;;;8.05;;
27489;SDS011;14925;51.026;13.752;2023-09-12T08:10:55;18.33;;;8.55;;
27489;SDS011;14925;51.026;13.752;2023-09-12T08:13:21;10.68;;;8.43;;
27489;SDS011;14925;51.026;13.752;2023-09-12T08:15:47;21.38;;;8.45;;
27489;SDS011;14925;51.026;13.752;2023-09-12T08:18:12;16.98;;;8.88;;
27489;SDS011;14925;51.026;13.752;2023-09-12T08:20:38;20.83;;;8.95;;
27489;SDS011;14925;51.026;13.752;2023-09-12T08:23:03;10.68;;;7.97;;
27489;SDS011;14925;51.026;13.752;2023-09-12T08:25:29;16.42;;;8.32;;
27489;SDS011;14925;51.026;13.752;2023-09-12T08:27:54;14.93;;;8.23;;
27489;SDS011;14925;51.026;13.752;2023-09-12T08:30:20;18.70;;;8.18;;
27489;SDS011;14925;51.026;13.752;2023-09-12T08:32:45;14.23;;;8.65;;
27489;SDS011;14925;51.026;13.752;2023-09-12T08:35:14;17.33;;;8.90;;
27489;SDS011;14925;51.026;13.752;2023-09-12T08:37:39;19.08;;;8.70;;
27489;SDS011;14925;51.026;13.752;2023-09-12T08:40:06;20.05;;;8.55;;
27489;SDS011;14925;51.026;13.752;2023-09-12T08:42:36;16.05;;;8.32;;
27489;SDS011;14925;51.026;13.752;2023-09-12T08:45:06;13.98;;;8.40;;
27489;SDS011;14925;51.026;13.752;2023-09-12T08:47:42;18.77;;;8.13;;
27489;SDS011;14925;51.026;13.752;2023-09-12T08:50:12;14.93;;;8.85;;
27489;SDS011;14925;51.026;13.752;2023-09-12T08:52:43;18.42;;;9.02;;
27489;SDS011;14925;51.026;13.752;2023-09-12T08:55:09;15.10;;;8.48;;
27489;SDS011;14925;51.026;13.752;2023-09-12T08:57:38;14.80;;;8.80;;
27489;SDS011;14925;51.026;13.752;2023-09-12T09:00:08;18.83;;;7.97;;
27489;SDS011;14925;51.026;13.752;2023-09-12T09:02:38;15.63;;;7.70;;
27489;SDS011;14925;51.026;13.752;2023-09-12T09:05:08;12.48;;;7.53;;
27489;SDS011;14925;51.026;13.752;2023-09-12T09:07:38;14.73;;;8.15;;
27489;SDS011;14925;51.026;13.752;2023-09-12T09:10:04;12.60;;;7.68;;
27489;SDS011;14925;51.026;13.752;2023-09-12T09:12:32;12.10;;;7.53;;
27489;SDS011;14925;51.026;13.752;2023-09-12T09:14:58;12.52;;;7.55;;
27489;SDS011;14925;51.026;13.752;2023-09-12T09:17:24;15.93;;;7.70;;
27489;SDS011;14925;51.026;13.752;2023-09-12T09:19:50;15.13;;;7.53;;
27489;SDS011;14925;51.026;13.752;2023-09-12T09:22:15;12.90;;;7.63;;
27489;SDS011;14925;51.026;13.752;2023-09-12T09:25:23;10.70;;;6.57;;
27489;SDS011;14925;51.026;13.752;2023-09-12T09:27:37;12.23;;;7.47;;
27489;SDS011;14925;51.026;13.752;2023-09-12T09:30:02;14.32;;;6.97;;
27489;SDS011;14925;51.026;13.752;2023-09-12T09:32:28;10.52;;;6.80;;
27489;SDS011;14925;51.026;13.752;2023-09-12T09:34:53;16.73;;;7.57;;
27489;SDS011;14925;51.026;13.752;2023-09-12T09:37:19;13.70;;;7.15;;
27489;SDS011;14925;51.026;13.752;2023-09-12T09:39:44;13.00;;;6.95;;
27489;SDS011;14925;51.026;13.752;2023-09-12T09:42:11;9.80;;;7.03;;
27489;SDS011;14925;51.026;13.752;2023-09-12T09:44:37;17.02;;;7.15;;
27489;SDS011;14925;51.026;13.752;2023-09-12T09:47:02;12.48;;;6.90;;
27489;SDS011;14925;51.026;13.752;2023-09-12T09:49:28;10.82;;;6.38;;
27489;SDS011;14925;51.026;13.752;2023-09-12T09:51:56;11.55;;;6.53;;
27489;SDS011;14925;51.026;13.752;2023-09-12T09:54:23;12.05;;;6.13;;
27489;SDS011;14925;51.026;13.752;2023-09-12T09:56:50;11.32;;;6.32;;
27489;SDS011;14925;51.026;13.752;2023-09-12T09:59:20;12.27;;;6.50;;
27489;SDS011;14925;51.026;13.752;2023-09-12T10:01:48;9.82;;;6.10;;
27489;SDS011;14925;51.026;13.752;2023-09-12T10:04:14;11.32;;;6.07;;
27489;SDS011;14925;51.026;13.752;2023-09-12T10:06:40;8.50;;;6.50;;
27489;SDS011;14925;51.026;13.752;2023-09-12T10:09:11;11.45;;;6.28;;
27489;SDS011;14925;51.026;13.752;2023-09-12T10:11:42;11.43;;;6.15;;
27489;SDS011;14925;51.026;13.752;2023-09-12T10:14:08;12.45;;;6.05;;
27489;SDS011;14925;51.026;13.752;2023-09-12T10:16:44;10.48;;;5.80;;
27489;SDS011;14925;51.026;13.752;2023-09-12T10:21:49;11.15;;;5.85;;
27489;SDS011;14925;51.026;13.752;2023-09-12T10:24:19;9.75;;;5.20;;
27489;SDS011;14925;51.026;13.752;2023-09-12T10:26:46;10.57;;;5.43;;
27489;SDS011;14925;51.026;13.752;2023-09-12T10:29:13;11.05;;;4.80;;
27489;SDS011;14925;51.026;13.752;2023-09-12T10:31:40;10.65;;;4.80;;
27489;SDS011;14925;51.026;13.752;2023-09-12T10:34:06;9.13;;;5.05;;
27489;SDS011;14925;51.026;13.752;2023-09-12T10:36:36;14.65;;;5.50;;
27489;SDS011;14925;51.026;13.752;2023-09-12T10:39:04;11.85;;;5.60;;
27489;SDS011;14925;51.026;13.752;2023-09-12T10:41:30;16.38;;;5.80;;
27489;SDS011;14925;51.026;13.752;2023-09-12T10:43:55;13.30;;;6.00;;
27489;SDS011;14925;51.026;13.752;2023-09-12T10:46:23;14.35;;;6.05;;
27489;SDS011;14925;51.026;13.752;2023-09-12T10:48:48;14.50;;;6.07;;
27489;SDS011;14925;51.026;13.752;2023-09-12T10:51:15;14.65;;;6.40;;
27489;SDS011;14925;51.026;13.752;2023-09-12T10:53:45;10.88;;;5.90;;
27489;SDS011;14925;51.026;13.752;2023-09-12T11:01:32;15.20;;;6.13;;
27489;SDS011;14925;51.026;13.752;2023-09-12T11:03:59;16.10;;;5.78;;
27489;SDS011;14925;51.026;13.752;2023-09-12T11:06:45;12.70;;;5.30;;
27489;SDS011;14925;51.026;13.752;2023-09-12T11:11:41;14.68;;;5.53;;
27489;SDS011;14925;51.026;13.752;2023-09-12T11:14:08;17.80;;;5.50;;
27489;SDS011;14925;51.026;13.752;2023-09-12T11:16:33;15.70;;;5.63;;
27489;SDS011;14925;51.026;13.752;2023-09-12T11:19:21;17.40;;;5.63;;
27489;SDS011;14925;51.026;13.752;2023-09-12T11:21:51;14.88;;;6.18;;
27489;SDS011;14925;51.026;13.752;2023-09-12T11:24:19;18.92;;;5.60;;
27489;SDS011;14925;51.026;13.752;2023-09-12T11:30:00;17.23;;;5.00;;
27489;SDS011;14925;51.026;13.752;2023-09-12T11:32:25;20.48;;;5.80;;
27489;SDS011;14925;51.026;13.752;2023-09-12T11:34:53;15.07;;;5.50;;
27489;SDS011;14925;51.026;13.752;2023-09-12T11:37:22;15.57;;;5.50;;
27489;SDS011;14925;51.026;13.752;2023-09-12T11:39:49;22.55;;;5.97;;
27489;SDS011;14925;51.026;13.752;2023-09-12T11:42:16;20.63;;;5.85;;
27489;SDS011;14925;51.026;13.752;2023-09-12T11:44:41;16.63;;;5.63;;
27489;SDS011;14925;51.026;13.752;2023-09-12T11:47:09;18.20;;;5.63;;
27489;SDS011;14925;51.026;13.752;2023-09-12T11:49:39;15.65;;;5.38;;
27489;SDS011;14925;51.026;13.752;2023-09-12T11:52:12;21.02;;;5.88;;
27489;SDS011;14925;51.026;13.752;2023-09-12T11:54:39;18.65;;;5.85;;
27489;SDS011;14925;51.026;13.752;2023-09-12T11:57:17;16.50;;;5.55;;
27489;SDS011;14925;51.026;13.752;2023-09-12T11:59:43;14.68;;;5.22;;
27489;SDS011;14925;51.026;13.752;2023-09-12T12:02:16;17.52;;;5.13;;
27489;SDS011;14925;51.026;13.752;2023-09-12T12:04:42;16.13;;;5.65;;
27489;SDS011;14925;51.026;13.752;2023-09-12T12:07:08;21.27;;;5.35;;
27489;SDS011;14925;51.026;13.752;2023-09-12T12:09:34;19.88;;;5.45;;
27489;SDS011;14925;51.026;13.752;2023-09-12T12:12:10;19.35;;;6.18;;
27489;SDS011;14925;51.026;13.752;2023-09-12T12:14:38;22.80;;;5.80;;
27489;SDS011;14925;51.026;13.752;2023-09-12T12:17:05;19.88;;;4.95;;
27489;SDS011;14925;51.026;13.752;2023-09-12T12:19:32;17.35;;;5.35;;
27489;SDS011;14925;51.026;13.752;2023-09-12T12:21:57;14.07;;;5.60;;
27489;SDS011;14925;51.026;13.752;2023-09-12T12:24:23;17.25;;;5.32;;
27489;SDS011;14925;51.026;13.752;2023-09-12T12:26:48;13.60;;;5.55;;
27489;SDS011;14925;51.026;13.752;2023-09-12T12:29:13;16.80;;;5.78;;
27489;SDS011;14925;51.026;13.752;2023-09-12T12:31:39;16.63;;;5.30;;
27489;SDS011;14925;51.026;13.752;2023-09-12T12:34:05;17.00;;;5.28;;
27489;SDS011;14925;51.026;13.752;2023-09-12T12:36:30;20.35;;;5.50;;
27489;SDS011;14925;51.026;13.752;2023-09-12T12:38:56;17.98;;;5.93;;
27489;SDS011;14925;51.026;13.752;2023-09-12T12:41:28;15.60;;;5.45;;
27489;SDS011;14925;51.026;13.752;2023-09-12T12:43:57;20.35;;;5.47;;
27489;SDS011;14925;51.026;13.752;2023-09-12T12:46:26;15.13;;;5.28;;
27489;SDS011;14925;51.026;13.752;2023-09-12T12:48:52;23.25;;;5.45;;
27489;SDS011;14925;51.026;13.752;2023-09-12T12:51:19;17.38;;;5.53;;
27489;SDS011;14925;51.026;13.752;2023-09-12T12:54:02;25.05;;;5.50;;
27489;SDS011;14925;51.026;13.752;2023-09-12T12:56:29;17.42;;;5.63;;
27489;SDS011;14925;51.026;13.752;2023-09-12T12:58:55;17.02;;;5.53;;
27489;SDS011;14925;51.026;13.752;2023-09-12T13:01:27;17.85;;;5.47;;
27489;SDS011;14925;51.026;13.752;2023-09-12T13:03:53;20.15;;;5.63;;
27489;SDS011;14925;51.026;13.752;2023-09-12T13:06:21;18.48;;;5.22;;
27489;SDS011;14925;51.026;13.752;2023-09-12T13:08:47;15.48;;;5.50;;
27489;SDS011;14925;51.026;13.752;2023-09-12T13:11:14;15.32;;;5.28;;
27489;SDS011;14925;51.026;13.752;2023-09-12T13:13:40;15.63;;;5.07;;
27489;SDS011;14925;51.026;13.752;2023-09-12T13:16:07;13.90;;;5.18;;
27489;SDS011;14925;51.026;13.752;2023-09-12T13:18:37;21.17;;;5.15;;
27489;SDS011;14925;51.026;13.752;2023-09-12T13:21:04;15.98;;;5.53;;
27489;SDS011;14925;51.026;13.752;2023-09-12T13:23:29;23.13;;;5.38;;
27489;SDS011;14925;51.026;13.752;2023-09-12T13:25:58;15.23;;;5.18;;
27489;SDS011;14925;51.026;13.752;2023-09-12T13:28:23;14.18;;;6.10;;
27489;SDS011;14925;51.026;13.752;2023-09-12T13:30:52;19.20;;;5.38;;
27489;SDS011;14925;51.026;13.752;2023-09-12T13:33:23;23.25;;;5.35;;
27489;SDS011;14925;51.026;13.752;2023-09-12T13:35:49;20.40;;;5.45;;
27489;SDS011;14925;51.026;13.752;2023-09-12T13:38:15;13.77;;;4.50;;
27489;SDS011;14925;51.026;13.752;2023-09-12T13:40:43;13.80;;;5.28;;
27489;SDS011;14925;51.026;13.752;2023-09-12T13:43:09;20.48;;;5.28;;
27489;SDS011;14925;51.026;13.752;2023-09-12T13:45:35;16.60;;;5.18;;
27489;SDS011;14925;51.026;13.752;2023-09-12T13:48:01;18.65;;;5.43;;
27489;SDS011;14925;51.026;13.752;2023-09-12T13:50:28;16.23;;;4.88;;
27489;SDS011;14925;51.026;13.752;2023-09-12T13:52:54;16.98;;;4.90;;
27489;SDS011;14925;51.026;13.752;2023-09-12T13:55:21;18.30;;;5.00;;
27489;SDS011;14925;51.026;13.752;2023-09-12T13:57:46;13.57;;;5.10;;
27489;SDS011;14925;51.026;13.752;2023-09-12T14:00:12;13.45;;;5.32;;
27489;SDS011;14925;51.026;13.752;2023-09-12T14:02:37;14.90;;;5.60;;
27489;SDS011;14925;51.026;13.752;2023-09-12T14:05:03;14.88;;;5.43;;
27489;SDS011;14925;51.026;13.752;2023-09-12T14:07:28;15.35;;;4.85;;
27489;SDS011;14925;51.026;13.752;2023-09-12T14:09:54;14.02;;;4.72;;
27489;SDS011;14925;51.026;13.752;2023-09-12T14:12:24;14.93;;;5.50;;
27489;SDS011;14925;51.026;13.752;2023-09-12T14:14:51;15.07;;;5.00;;
27489;SDS011;14925;51.026;13.752;2023-09-12T14:17:16;14.82;;;4.75;;
27489;SDS011;14925;51.026;13.752;2023-09-12T14:19:42;11.70;;;4.90;;
27489;SDS011;14925;51.026;13.752;2023-09-12T14:22:07;16.13;;;5.10;;
27489;SDS011;14925;51.026;13.752;2023-09-12T14:24:33;12.55;;;4.75;;
27489;SDS011;14925;51.026;13.752;2023-09-12T14:26:58;14.85;;;4.57;;
27489;SDS011;14925;51.026;13.752;2023-09-12T14:29:23;15.60;;;4.70;;
27489;SDS011;14925;51.026;13.752;2023-09-12T14:31:55;14.75;;;4.57;;
27489;SDS011;14925;51.026;13.752;2023-09-12T14:34:26;21.80;;;4.95;;